Time;durP1;ratioP1;P1;durP2;ratioP2;P2;SDS_P1;SDS_P2;PMS_P1;PMS_P2;Temp;Humidity;BMP_temperature;BMP_pressure;BME280_temperature;BME280_humidity;BME280_pressure;Samples;Min_cycle;Max_cycle;Signal;HPM_P1;HPM_P2
2021/12/03 00:02:00;;;;;;;6.87;6.17;;;1.90;99.90;;;;;;4996632;28;20641;-72
2021/12/03 00:04:25;;;;;;;6.43;5.87;;;1.80;99.90;;;;;;4993689;28;20668;-73
2021/12/03 00:06:51;;;;;;;6.63;5.90;;;1.80;99.90;;;;;;4994648;28;20217;-73
2021/12/03 00:09:17;;;;;;;7.00;6.27;;;1.80;99.90;;;;;;4979393;28;20185;-73
2021/12/03 00:11:42;;;;;;;7.70;6.63;;;1.80;99.90;;;;;;4991443;28;20182;-73
2021/12/03 00:14:08;;;;;;;7.73;6.93;;;1.80;99.90;;;;;;4969146;28;20177;-73
2021/12/03 00:16:34;;;;;;;7.07;6.47;;;1.70;99.90;;;;;;4974433;28;20253;-73
2021/12/03 00:18:59;;;;;;;7.10;5.43;;;1.70;99.90;;;;;;4990717;28;20209;-73
2021/12/03 00:21:26;;;;;;;6.93;6.30;;;1.70;99.90;;;;;;4989476;28;20217;-73
2021/12/03 00:23:52;;;;;;;6.77;5.20;;;1.80;99.90;;;;;;4982921;28;20183;-73
2021/12/03 00:26:18;;;;;;;7.23;6.27;;;1.80;99.90;;;;;;4989951;28;20223;-72
2021/12/03 00:28:44;;;;;;;7.43;6.50;;;1.90;99.90;;;;;;4989755;28;20548;-74
2021/12/03 00:31:10;;;;;;;8.10;7.30;;;1.90;99.90;;;;;;4991279;28;20186;-73
2021/12/03 00:33:36;;;;;;;8.80;7.17;;;1.80;99.90;;;;;;4987882;28;20681;-73
2021/12/03 00:36:05;;;;;;;7.40;6.43;;;1.70;99.90;;;;;;4974650;28;20217;-73
2021/12/03 00:38:37;;;;;;;7.10;6.40;;;1.70;99.90;;;;;;4989871;28;20641;-72
2021/12/03 00:41:08;;;;;;;6.73;6.03;;;1.60;99.90;;;;;;4986647;28;20237;-72
2021/12/03 00:43:36;;;;;;;8.83;7.50;;;1.60;99.90;;;;;;4993339;28;20272;-73
2021/12/03 00:46:06;;;;;;;8.83;7.53;;;1.50;99.90;;;;;;4984389;28;20209;-72
2021/12/03 00:48:33;;;;;;;8.67;7.20;;;1.40;99.90;;;;;;4981014;28;20273;-72
2021/12/03 00:50:59;;;;;;;7.70;6.17;;;1.40;99.90;;;;;;4990335;28;20668;-72
2021/12/03 00:53:24;;;;;;;8.47;7.60;;;1.40;99.90;;;;;;4982549;28;20274;-73
2021/12/03 00:55:50;;;;;;;9.00;7.50;;;1.30;99.90;;;;;;4969223;28;20201;-73
2021/12/03 00:58:16;;;;;;;9.73;7.33;;;1.30;99.90;;;;;;4962961;28;20277;-73
2021/12/03 01:00:42;;;;;;;7.23;6.53;;;1.30;99.90;;;;;;4984539;28;20202;-72
2021/12/03 01:03:07;;;;;;;9.80;7.70;;;1.30;99.90;;;;;;4988399;28;20208;-73
2021/12/03 01:05:34;;;;;;;9.30;7.70;;;1.30;99.90;;;;;;4986279;28;20218;-73
2021/12/03 01:08:00;;;;;;;9.00;7.53;;;1.20;99.90;;;;;;4987935;28;20260;-72
2021/12/03 01:10:27;;;;;;;10.43;8.00;;;1.20;99.90;;;;;;4995012;28;20681;-72
2021/12/03 01:12:54;;;;;;;9.77;7.80;;;1.20;99.90;;;;;;4985548;28;20190;-73
2021/12/03 01:15:24;;;;;;;8.63;7.70;;;1.10;99.90;;;;;;4977901;28;20226;-72
2021/12/03 01:17:51;;;;;;;8.63;7.73;;;1.00;99.90;;;;;;4985599;28;20208;-73
2021/12/03 01:20:17;;;;;;;8.33;7.37;;;1.00;99.90;;;;;;4977102;28;20220;-72
2021/12/03 01:22:46;;;;;;;6.53;5.77;;;1.00;99.90;;;;;;4984407;28;20186;-72
2021/12/03 01:25:14;;;;;;;10.23;8.03;;;1.00;99.90;;;;;;4983649;28;20234;-73
2021/12/03 01:27:40;;;;;;;8.60;7.53;;;1.00;99.90;;;;;;4984134;28;20194;-72
2021/12/03 01:30:09;;;;;;;8.70;7.73;;;1.00;99.90;;;;;;4979429;28;20178;-72
2021/12/03 01:32:35;;;;;;;8.23;6.87;;;1.10;99.90;;;;;;4987472;28;20193;-72
2021/12/03 01:35:01;;;;;;;6.57;5.73;;;1.20;99.90;;;;;;4982196;28;20229;-72
2021/12/03 01:37:26;;;;;;;8.63;7.47;;;1.30;99.90;;;;;;4987850;28;20244;-73
2021/12/03 01:39:52;;;;;;;7.40;6.63;;;1.40;99.90;;;;;;4984873;28;20221;-73
2021/12/03 01:42:18;;;;;;;9.23;6.93;;;1.40;99.90;;;;;;4986267;28;20189;-73
2021/12/03 01:44:43;;;;;;;8.30;7.50;;;1.50;99.90;;;;;;4987513;28;20696;-73
2021/12/03 01:47:09;;;;;;;9.67;8.03;;;1.50;99.90;;;;;;4987046;28;20289;-72
2021/12/03 01:49:35;;;;;;;7.67;6.43;;;1.40;99.90;;;;;;4984248;28;20198;-72
2021/12/03 01:52:00;;;;;;;9.00;7.47;;;1.40;99.90;;;;;;4986051;28;20269;-73
2021/12/03 01:54:26;;;;;;;7.90;6.10;;;1.30;99.90;;;;;;4984284;28;20639;-72
2021/12/03 01:56:52;;;;;;;7.87;5.87;;;1.20;99.90;;;;;;4982707;28;20206;-72
2021/12/03 01:59:18;;;;;;;6.00;5.10;;;1.20;99.90;;;;;;4977428;28;20554;-73
2021/12/03 02:01:43;;;;;;;6.30;5.40;;;1.10;99.90;;;;;;4979714;28;20189;-73
2021/12/03 02:04:09;;;;;;;6.37;5.77;;;1.00;99.90;;;;;;4987350;28;20214;-73
2021/12/03 02:06:36;;;;;;;6.10;5.33;;;1.00;99.90;;;;;;4985016;28;20736;-73
2021/12/03 02:09:04;;;;;;;5.63;4.77;;;0.90;99.90;;;;;;4986810;28;20174;-73
2021/12/03 02:11:30;;;;;;;7.13;6.33;;;0.90;99.90;;;;;;4982236;28;21058;-72
2021/12/03 02:13:56;;;;;;;5.17;4.67;;;0.90;99.90;;;;;;4986528;28;20217;-73
2021/12/03 02:16:22;;;;;;;5.90;5.13;;;0.70;99.90;;;;;;4987870;28;20209;-72
2021/12/03 02:18:49;;;;;;;6.77;5.87;;;0.70;99.90;;;;;;4983984;28;20235;-73
2021/12/03 02:21:16;;;;;;;7.40;6.63;;;0.70;99.90;;;;;;4982495;28;20610;-73
2021/12/03 02:23:43;;;;;;;7.80;6.23;;;0.60;99.90;;;;;;4986090;28;20629;-73
2021/12/03 02:26:10;;;;;;;9.17;6.77;;;0.60;99.90;;;;;;4983384;28;20220;-73
2021/12/03 02:28:41;;;;;;;8.67;6.80;;;0.50;99.90;;;;;;4984281;28;20182;-73
2021/12/03 02:31:07;;;;;;;6.87;6.23;;;0.50;99.90;;;;;;4987067;28;20173;-72
2021/12/03 02:33:34;;;;;;;8.13;6.13;;;0.50;99.90;;;;;;4985077;28;20715;-73
2021/12/03 02:36:00;;;;;;;7.43;6.53;;;0.50;99.90;;;;;;4990016;28;20186;-72
2021/12/03 02:38:27;;;;;;;7.97;6.97;;;0.70;99.90;;;;;;4984432;28;20192;-73
2021/12/03 02:40:54;;;;;;;7.13;6.30;;;0.70;99.90;;;;;;4984836;28;20241;-73
2021/12/03 02:43:20;;;;;;;9.63;6.83;;;0.70;99.90;;;;;;4990761;28;20205;-73
2021/12/03 02:45:46;;;;;;;7.70;6.90;;;0.80;99.90;;;;;;4988203;28;20252;-73
2021/12/03 02:48:12;;;;;;;7.33;6.20;;;0.80;99.90;;;;;;4990295;28;20247;-72
2021/12/03 02:50:38;;;;;;;7.47;6.67;;;0.80;99.90;;;;;;4987981;28;20195;-73
2021/12/03 02:53:04;;;;;;;7.17;6.47;;;0.80;99.90;;;;;;4993295;28;20186;-73
2021/12/03 02:55:30;;;;;;;7.00;6.30;;;0.80;99.90;;;;;;4987603;28;20206;-73
2021/12/03 02:57:56;;;;;;;8.43;7.40;;;0.70;99.90;;;;;;4984953;28;20666;-73
2021/12/03 03:00:24;;;;;;;7.00;6.30;;;0.60;99.90;;;;;;4988123;28;20212;-73
2021/12/03 03:02:50;;;;;;;7.63;6.83;;;0.70;99.90;;;;;;4986662;28;20228;-73
2021/12/03 03:05:17;;;;;;;7.63;6.77;;;0.70;99.90;;;;;;4989571;28;20669;-73
2021/12/03 03:07:44;;;;;;;7.63;6.53;;;0.70;99.90;;;;;;4981119;28;20283;-72
2021/12/03 03:10:14;;;;;;;7.80;7.03;;;0.90;99.90;;;;;;4974597;28;20185;-72
2021/12/03 03:12:40;;;;;;;9.40;7.20;;;1.00;99.90;;;;;;4989093;28;20193;-73
2021/12/03 03:15:08;;;;;;;8.83;6.93;;;1.00;99.90;;;;;;4991761;28;20190;-72
2021/12/03 03:17:34;;;;;;;9.00;8.10;;;1.10;99.90;;;;;;4990566;28;20296;-73
2021/12/03 03:20:01;;;;;;;8.83;7.67;;;1.20;99.90;;;;;;4989189;28;20209;-73
2021/12/03 03:22:28;;;;;;;7.90;6.53;;;1.30;99.90;;;;;;4997812;28;20192;-72
2021/12/03 03:24:59;;;;;;;8.10;7.00;;;1.40;99.90;;;;;;4995236;28;20202;-72
2021/12/03 03:27:25;;;;;;;8.67;7.03;;;1.40;99.90;;;;;;4995922;28;20212;-72
2021/12/03 03:29:52;;;;;;;8.10;7.30;;;1.40;99.90;;;;;;4995571;28;20185;-72
2021/12/03 03:32:19;;;;;;;7.70;6.90;;;1.40;99.90;;;;;;4991563;28;20221;-72
2021/12/03 03:34:45;;;;;;;8.80;7.67;;;1.50;99.90;;;;;;4982030;28;20192;-72
2021/12/03 03:37:11;;;;;;;12.77;8.30;;;1.50;99.90;;;;;;4993904;28;20289;-72
2021/12/03 03:39:37;;;;;;;8.90;7.67;;;1.50;99.90;;;;;;4991639;28;20194;-72
2021/12/03 03:42:03;;;;;;;11.30;8.80;;;1.50;99.90;;;;;;4997965;28;20189;-72
2021/12/03 03:44:29;;;;;;;11.53;8.57;;;1.60;99.90;;;;;;4974281;28;20317;-72
2021/12/03 03:46:56;;;;;;;8.63;7.73;;;1.60;99.90;;;;;;4993888;28;20270;-72
2021/12/03 03:49:23;;;;;;;10.27;8.20;;;1.40;99.90;;;;;;4992907;28;20188;-72
2021/12/03 03:51:51;;;;;;;10.33;8.63;;;1.40;99.90;;;;;;4987941;28;20252;-72
2021/12/03 03:54:17;;;;;;;10.97;8.60;;;1.30;99.90;;;;;;4991430;28;20186;-72
2021/12/03 03:56:44;;;;;;;11.37;9.63;;;1.10;99.90;;;;;;4993173;28;20284;-72
2021/12/03 03:59:10;;;;;;;8.63;7.57;;;0.90;99.90;;;;;;4997715;28;20228;-72
2021/12/03 04:01:36;;;;;;;7.80;5.70;;;0.80;99.90;;;;;;4994895;28;20189;-72
2021/12/03 04:04:02;;;;;;;9.17;6.20;;;0.90;99.90;;;;;;4992718;28;20190;-72
2021/12/03 04:06:28;;;;;;;7.20;5.37;;;1.00;99.90;;;;;;4997870;28;20228;-74
2021/12/03 04:08:53;;;;;;;6.63;5.13;;;1.10;99.90;;;;;;4992094;28;20284;-75
2021/12/03 04:11:22;;;;;;;6.17;5.57;;;1.00;99.90;;;;;;4988880;28;20209;-75
2021/12/03 04:13:48;;;;;;;6.73;5.03;;;1.00;99.90;;;;;;4993218;28;20197;-75
2021/12/03 04:16:14;;;;;;;5.67;5.10;;;1.00;99.90;;;;;;4992384;28;20205;-76
2021/12/03 04:18:39;;;;;;;6.73;6.07;;;1.00;99.90;;;;;;4992953;28;20185;-75
2021/12/03 04:21:05;;;;;;;7.73;5.37;;;1.00;99.90;;;;;;5002203;28;20208;-76
2021/12/03 04:23:31;;;;;;;6.30;5.70;;;1.00;99.90;;;;;;4995523;28;20272;-75
2021/12/03 04:25:57;;;;;;;6.00;5.43;;;0.90;99.90;;;;;;4989656;28;20593;-75
2021/12/03 04:28:23;;;;;;;7.90;6.70;;;0.90;99.90;;;;;;4995839;28;20194;-75
2021/12/03 04:30:49;;;;;;;6.60;5.90;;;0.90;99.90;;;;;;4993623;28;20617;-75
2021/12/03 04:33:15;;;;;;;7.17;6.23;;;0.90;99.90;;;;;;4990755;28;20487;-75
2021/12/03 04:35:41;;;;;;;7.50;6.03;;;0.90;99.90;;;;;;4995270;28;20181;-75
2021/12/03 04:38:07;;;;;;;7.23;6.20;;;0.90;99.90;;;;;;4993829;28;20198;-75
2021/12/03 04:40:34;;;;;;;7.73;6.13;;;0.90;99.90;;;;;;4992214;28;20185;-75
2021/12/03 04:43:01;;;;;;;7.63;6.37;;;0.90;99.90;;;;;;4987226;28;20190;-75
2021/12/03 04:45:28;;;;;;;7.17;6.10;;;0.90;99.90;;;;;;4994805;28;20269;-75
2021/12/03 04:47:55;;;;;;;9.37;6.23;;;0.90;99.90;;;;;;4991224;28;20206;-75
2021/12/03 04:50:23;;;;;;;8.10;5.40;;;0.90;99.90;;;;;;4988238;28;20180;-75
2021/12/03 04:52:49;;;;;;;9.03;6.63;;;0.90;99.90;;;;;;4987266;28;20191;-75
2021/12/03 04:55:16;;;;;;;7.30;6.60;;;0.90;99.90;;;;;;4995577;28;20189;-75
2021/12/03 04:57:42;;;;;;;3.87;3.57;;;0.90;99.90;;;;;;4982817;28;20210;-75
2021/12/03 05:00:12;;;;;;;4.73;4.33;;;0.90;99.90;;;;;;4991698;28;20216;-74
2021/12/03 05:02:38;;;;;;;5.87;5.10;;;0.90;99.90;;;;;;4991930;28;20185;-74
2021/12/03 05:05:06;;;;;;;4.90;3.90;;;0.80;99.90;;;;;;4992229;28;20583;-75
2021/12/03 05:07:57;;;;;;;3.93;3.63;;;0.90;99.90;;;;;;4986773;28;20198;-74
2021/12/03 05:10:18;;;;;;;5.47;4.97;;;0.90;99.90;;;;;;4991239;28;20552;-73
2021/12/03 05:12:43;;;;;;;6.27;5.67;;;0.80;99.90;;;;;;4993846;28;20182;-74
2021/12/03 05:15:09;;;;;;;7.67;6.00;;;0.80;99.90;;;;;;4993061;28;20221;-74
2021/12/03 05:17:35;;;;;;;5.40;4.90;;;0.80;99.90;;;;;;4989985;28;20205;-74
2021/12/03 05:20:02;;;;;;;6.57;5.40;;;0.80;99.90;;;;;;4991267;28;20538;-73
2021/12/03 05:22:28;;;;;;;5.97;5.23;;;0.90;99.90;;;;;;4993531;28;20190;-74
2021/12/03 05:24:54;;;;;;;7.10;5.30;;;0.90;99.90;;;;;;4990454;28;20205;-74
2021/12/03 05:27:20;;;;;;;5.87;5.37;;;0.90;99.90;;;;;;4993313;28;20589;-74
2021/12/03 05:29:48;;;;;;;8.07;6.03;;;0.90;99.90;;;;;;4988992;28;20182;-74
2021/12/03 05:32:16;;;;;;;6.23;5.63;;;0.80;99.90;;;;;;4989336;28;20182;-74
2021/12/03 05:34:42;;;;;;;6.00;5.40;;;0.80;99.90;;;;;;4993123;28;20194;-74
2021/12/03 05:37:08;;;;;;;6.20;5.50;;;0.90;99.90;;;;;;4993151;28;20305;-74
2021/12/03 05:39:35;;;;;;;9.10;6.13;;;0.90;99.90;;;;;;4993797;28;20224;-74
2021/12/03 05:42:01;;;;;;;7.97;5.47;;;0.90;99.90;;;;;;4992710;28;20201;-74
2021/12/03 05:44:29;;;;;;;7.67;5.70;;;0.90;99.90;;;;;;4991544;28;20205;-74
2021/12/03 05:46:55;;;;;;;8.67;6.87;;;0.90;99.90;;;;;;4992605;28;20248;-75
2021/12/03 05:49:21;;;;;;;7.43;6.03;;;0.90;99.90;;;;;;4992312;28;20213;-74
2021/12/03 05:51:47;;;;;;;7.50;5.90;;;0.90;99.90;;;;;;4993704;28;20174;-74
2021/12/03 05:54:12;;;;;;;6.17;5.53;;;0.90;99.90;;;;;;4991563;28;20242;-74
2021/12/03 05:56:38;;;;;;;5.93;5.33;;;0.90;99.90;;;;;;4992219;28;20683;-74
2021/12/03 05:59:04;;;;;;;6.77;5.43;;;0.80;99.90;;;;;;4991830;28;20199;-75
2021/12/03 06:01:29;;;;;;;7.00;5.87;;;0.90;99.90;;;;;;4984290;28;20182;-73
2021/12/03 06:03:56;;;;;;;7.30;5.73;;;1.00;99.90;;;;;;4982722;28;20642;-73
2021/12/03 06:06:21;;;;;;;4.57;4.07;;;1.00;99.90;;;;;;4981123;28;20217;-73
2021/12/03 06:08:47;;;;;;;10.80;5.80;;;1.00;99.90;;;;;;4979107;28;20194;-73
2021/12/03 06:11:13;;;;;;;9.23;5.93;;;1.00;99.90;;;;;;4982690;28;20186;-73
2021/12/03 06:13:39;;;;;;;5.87;5.23;;;1.00;99.90;;;;;;4977705;28;20178;-73
2021/12/03 06:16:10;;;;;;;6.90;5.53;;;1.00;99.90;;;;;;4977753;28;20198;-73
2021/12/03 06:18:36;;;;;;;7.37;5.53;;;1.00;99.90;;;;;;4977667;28;20182;-74
2021/12/03 06:21:05;;;;;;;7.07;5.07;;;1.00;99.90;;;;;;4980678;28;20273;-74
2021/12/03 06:23:32;;;;;;;6.47;5.23;;;1.00;99.90;;;;;;4978185;28;20183;-73
2021/12/03 06:25:58;;;;;;;6.20;5.27;;;1.00;99.90;;;;;;4988574;28;20296;-73
2021/12/03 06:28:25;;;;;;;7.27;6.53;;;1.00;99.90;;;;;;4989619;28;20190;-74
2021/12/03 06:30:51;;;;;;;7.70;6.57;;;1.00;99.90;;;;;;4991420;28;20173;-74
2021/12/03 06:33:19;;;;;;;7.87;6.07;;;0.90;99.90;;;;;;4991557;28;20660;-74
2021/12/03 06:35:45;;;;;;;5.67;5.00;;;0.90;99.90;;;;;;4985672;28;20186;-74
2021/12/03 06:38:11;;;;;;;10.00;7.53;;;1.00;99.90;;;;;;4992843;28;20178;-75
2021/12/03 06:40:37;;;;;;;10.23;7.37;;;1.00;99.90;;;;;;4992487;28;20195;-75
2021/12/03 06:43:03;;;;;;;12.37;7.57;;;1.10;99.90;;;;;;4983892;28;20196;-74
2021/12/03 06:45:29;;;;;;;7.73;6.93;;;1.10;99.90;;;;;;4984467;28;20214;-76
2021/12/03 06:47:55;;;;;;;11.20;7.10;;;1.10;99.90;;;;;;4991121;28;20220;-75
2021/12/03 06:50:21;;;;;;;5.63;5.03;;;1.10;99.90;;;;;;4992750;28;20245;-75
2021/12/03 06:53:06;;;;;;;9.60;8.30;;;1.10;99.90;;;;;;4970533;28;20614;-76
2021/12/03 06:56:08;;;;;;;11.73;6.50;;;1.10;99.90;;;;;;4985782;28;20174;-76
2021/12/03 06:58:24;;;;;;;9.63;6.97;;;1.20;99.90;;;;;;4988463;28;20194;-75
2021/12/03 07:00:53;;;;;;;8.40;6.10;;;1.20;99.90;;;;;;4990805;28;20182;-76
2021/12/03 07:03:19;;;;;;;8.57;5.90;;;1.20;99.90;;;;;;4991822;28;20617;-76
2021/12/03 07:05:45;;;;;;;10.10;5.27;;;1.10;99.90;;;;;;4990840;28;20301;-75
2021/12/03 07:08:10;;;;;;;7.93;6.20;;;1.10;99.90;;;;;;4987229;28;20175;-75
2021/12/03 07:10:36;;;;;;;7.77;6.97;;;1.20;99.90;;;;;;4987776;28;20193;-76
2021/12/03 07:13:02;;;;;;;8.87;6.97;;;1.10;99.90;;;;;;4966258;28;20214;-73
2021/12/03 07:15:28;;;;;;;13.67;6.90;;;1.10;99.90;;;;;;4989827;28;20192;-72
2021/12/03 07:17:53;;;;;;;10.60;7.33;;;1.10;99.90;;;;;;4990116;28;20237;-72
2021/12/03 07:20:21;;;;;;;11.67;8.77;;;1.00;99.90;;;;;;4992644;28;20193;-73
2021/12/03 07:22:47;;;;;;;11.23;7.70;;;1.00;99.90;;;;;;4984066;28;20173;-75
2021/12/03 07:25:13;;;;;;;10.83;7.00;;;1.10;99.90;;;;;;4985029;28;20206;-75
2021/12/03 07:27:39;;;;;;;7.53;6.37;;;1.10;99.90;;;;;;4976981;28;20699;-74
2021/12/03 07:30:06;;;;;;;9.20;6.73;;;1.10;99.90;;;;;;4989912;28;20220;-75
2021/12/03 07:32:32;;;;;;;7.10;6.20;;;1.10;99.90;;;;;;4983115;28;20641;-74
2021/12/03 07:34:58;;;;;;;5.37;4.87;;;1.20;99.90;;;;;;4973548;28;20212;-74
2021/12/03 07:37:24;;;;;;;6.70;5.50;;;1.20;99.90;;;;;;4985181;28;20621;-74
2021/12/03 07:39:50;;;;;;;7.90;6.20;;;1.20;99.90;;;;;;4972437;28;20278;-71
2021/12/03 07:42:16;;;;;;;8.40;6.23;;;1.20;99.90;;;;;;4984625;28;20468;-71
2021/12/03 07:44:42;;;;;;;12.13;7.03;;;1.20;99.90;;;;;;4986366;28;20198;-71
2021/12/03 07:47:08;;;;;;;6.73;5.93;;;1.20;99.90;;;;;;4989371;28;20194;-72
2021/12/03 07:49:34;;;;;;;13.10;5.10;;;1.30;99.90;;;;;;4982145;28;20185;-72
2021/12/03 07:52:00;;;;;;;11.03;6.90;;;1.20;99.90;;;;;;4985565;28;20182;-71
2021/12/03 07:54:26;;;;;;;8.07;6.77;;;1.30;99.90;;;;;;4983614;28;20197;-75
2021/12/03 07:56:52;;;;;;;7.20;6.60;;;1.30;99.90;;;;;;4990499;28;20206;-76
2021/12/03 07:59:17;;;;;;;6.37;5.13;;;1.30;99.90;;;;;;4990389;28;20246;-72
2021/12/03 08:01:46;;;;;;;7.07;6.20;;;1.30;99.90;;;;;;4988771;28;20182;-74
2021/12/03 08:04:13;;;;;;;6.30;5.70;;;1.30;99.90;;;;;;4984065;28;20193;-71
2021/12/03 08:06:40;;;;;;;8.97;7.07;;;1.40;99.90;;;;;;4987542;28;20225;-71
2021/12/03 08:09:06;;;;;;;8.17;7.37;;;1.40;99.90;;;;;;4993013;28;20178;-70
2021/12/03 08:11:32;;;;;;;6.37;5.77;;;1.30;99.90;;;;;;4984651;28;20202;-71
2021/12/03 08:13:58;;;;;;;7.77;6.97;;;1.40;99.90;;;;;;4988085;28;20183;-71
2021/12/03 08:16:24;;;;;;;8.97;6.90;;;1.40;99.90;;;;;;4988546;28;20202;-73
2021/12/03 08:18:49;;;;;;;7.27;6.47;;;1.30;99.90;;;;;;4990564;28;20265;-73
2021/12/03 08:21:15;;;;;;;7.60;6.87;;;1.40;99.90;;;;;;4980233;28;20190;-73
2021/12/03 08:23:41;;;;;;;9.20;6.53;;;1.40;99.90;;;;;;4993663;28;20181;-73
2021/12/03 08:26:06;;;;;;;6.43;5.80;;;1.40;99.90;;;;;;4986777;28;20260;-73
2021/12/03 08:28:32;;;;;;;7.30;6.60;;;1.50;99.90;;;;;;4993120;28;20190;-73
2021/12/03 08:30:59;;;;;;;8.17;7.20;;;1.60;99.90;;;;;;4986396;28;20171;-73
2021/12/03 08:33:25;;;;;;;10.83;6.90;;;1.60;99.90;;;;;;4990038;28;20186;-73
2021/12/03 08:35:51;;;;;;;7.17;6.47;;;1.60;99.90;;;;;;4987176;28;20185;-74
2021/12/03 08:38:17;;;;;;;8.03;5.67;;;1.70;99.90;;;;;;4988318;28;20186;-74
2021/12/03 08:40:42;;;;;;;8.00;7.03;;;1.70;99.90;;;;;;4985679;28;20185;-74
2021/12/03 08:43:08;;;;;;;8.63;7.30;;;1.70;99.90;;;;;;4989622;28;20213;-74
2021/12/03 08:45:36;;;;;;;8.23;7.07;;;1.80;99.90;;;;;;4988770;28;20217;-74
2021/12/03 08:48:04;;;;;;;5.57;5.07;;;1.90;99.90;;;;;;4992500;28;20668;-74
2021/12/03 08:50:33;;;;;;;7.53;6.40;;;2.00;99.90;;;;;;4983816;28;20667;-74
2021/12/03 08:55:30;;;;;;;7.30;6.50;;;2.10;99.90;;;;;;4988350;28;20221;-74
2021/12/03 08:57:56;;;;;;;9.77;7.73;;;2.20;99.90;;;;;;4989614;28;20205;-74
2021/12/03 09:00:22;;;;;;;9.17;7.70;;;2.20;99.90;;;;;;4987828;28;20256;-73
2021/12/03 09:02:49;;;;;;;8.20;7.40;;;2.10;99.90;;;;;;4990626;28;20189;-72
2021/12/03 09:05:16;;;;;;;5.40;4.90;;;2.20;99.90;;;;;;4990903;28;20197;-73
2021/12/03 09:07:42;;;;;;;7.93;7.13;;;2.30;99.90;;;;;;4987466;28;20260;-73
2021/12/03 09:10:12;;;;;;;8.20;7.20;;;2.40;99.90;;;;;;4989383;28;20745;-72
2021/12/03 09:12:38;;;;;;;8.07;6.83;;;2.40;99.90;;;;;;4984384;28;20189;-72
2021/12/03 09:15:08;;;;;;;7.53;6.83;;;2.50;99.90;;;;;;4980970;28;20551;-72
2021/12/03 09:22:57;;;;;;;9.23;6.97;;;2.80;99.90;;;;;;4982467;28;20265;-71
2021/12/03 09:25:30;;;;;;;8.37;6.43;;;3.10;99.90;;;;;;4986704;28;20337;-73
2021/12/03 09:27:56;;;;;;;7.67;6.77;;;3.20;99.90;;;;;;4990435;28;20201;-69
2021/12/03 09:30:22;;;;;;;7.10;6.40;;;3.20;99.90;;;;;;4991304;28;20189;-70
2021/12/03 09:32:55;;;;;;;7.00;6.30;;;3.30;99.90;;;;;;4987686;28;20606;-73
2021/12/03 09:35:23;;;;;;;7.90;7.20;;;3.50;99.90;;;;;;4987463;28;20811;-74
2021/12/03 09:37:48;;;;;;;7.83;7.13;;;3.60;99.90;;;;;;4965255;28;20206;-74
2021/12/03 09:40:20;;;;;;;8.07;7.27;;;3.70;99.90;;;;;;4991367;28;20555;-72
2021/12/03 09:42:47;;;;;;;6.93;6.33;;;3.60;99.90;;;;;;4985082;28;20182;-71
2021/12/03 09:45:12;;;;;;;5.27;4.73;;;3.80;99.90;;;;;;4989771;28;20297;-73
2021/12/03 09:47:38;;;;;;;8.23;6.33;;;3.90;99.90;;;;;;4988925;28;20286;-73
2021/12/03 09:50:11;;;;;;;7.75;7.15;;;4.10;99.90;;;;;;4982457;28;20422;-72
2021/12/03 09:52:46;;;;;;;6.97;6.40;;;4.10;99.90;;;;;;4987780;28;20182;-73
2021/12/03 09:55:13;;;;;;;6.30;5.73;;;4.20;99.90;;;;;;4989478;28;20603;-73
2021/12/03 09:58:03;;;;;;;5.97;5.40;;;4.20;99.90;;;;;;4988946;28;20194;-73
2021/12/03 10:14:28;;;;;;;4.93;4.53;;;4.10;99.90;;;;;;4983143;28;20602;-72
2021/12/03 10:36:33;;;;;;;5.00;4.60;;;6.30;99.90;;;;;;4985091;28;20217;-71
2021/12/03 10:39:38;;;;;;;4.10;3.80;;;8.90;99.90;;;;;;4972451;28;20585;-71
2021/12/03 11:15:14;;;;;;;2.67;2.50;;;13.10;73.40;;;;;;4985768;28;20736;-77
2021/12/03 14:02:46;;;;;;;3.53;3.28;;;5.50;79.60;;;;;;4986732;28;20284;-73
2021/12/03 14:48:29;;;;;;;5.93;3.27;;;3.50;92.90;;;;;;4985765;28;20202;-72
2021/12/03 14:51:24;;;;;;;3.23;2.93;;;3.30;92.70;;;;;;4986564;28;20182;-72
2021/12/03 14:54:13;;;;;;;4.03;3.53;;;3.20;92.80;;;;;;4986376;28;20174;-72
2021/12/03 14:56:40;;;;;;;3.77;3.47;;;3.10;93.30;;;;;;4983043;28;20194;-72
2021/12/03 14:59:19;;;;;;;2.60;2.47;;;3.00;94.20;;;;;;4989430;28;20182;-72
2021/12/03 15:07:03;;;;;;;4.20;3.90;;;2.80;95.70;;;;;;4980572;28;20224;-72
2021/12/03 15:09:48;;;;;;;4.10;3.80;;;2.60;96.40;;;;;;4987891;28;20201;-72
2021/12/03 15:35:30;;;;;;;4.80;4.40;;;1.60;99.90;;;;;;4987909;28;20181;-72
2021/12/03 15:38:14;;;;;;;5.07;4.67;;;1.50;99.90;;;;;;4988372;28;20285;-72
2021/12/03 15:41:00;;;;;;;4.67;4.27;;;1.60;99.90;;;;;;4986027;28;20186;-72
2021/12/03 15:57:12;;;;;;;5.10;4.43;;;1.10;99.90;;;;;;4986660;28;20190;-73
2021/12/03 16:16:23;;;;;;;7.13;5.80;;;0.50;99.90;;;;;;4987187;28;20240;-73
2021/12/03 16:46:10;;;;;;;8.70;6.37;;;0.10;99.90;;;;;;4984636;28;20236;-73
2021/12/03 16:49:29;;;;;;;7.83;5.80;;;0.10;99.90;;;;;;4984871;28;20175;-72
2021/12/03 16:53:54;;;;;;;8.50;5.77;;;0.00;99.90;;;;;;4982857;28;20753;-72
2021/12/03 16:56:25;;;;;;;6.70;5.90;;;0.00;99.90;;;;;;4980396;28;20222;-74
2021/12/03 16:58:52;;;;;;;6.43;5.80;;;0.00;99.90;;;;;;4982636;28;20198;-72
2021/12/03 17:01:25;;;;;;;6.77;6.07;;;0.00;99.90;;;;;;4981269;28;20623;-72
2021/12/03 17:04:01;;;;;;;7.63;6.83;;;0.00;99.90;;;;;;4984164;28;20184;-72
2021/12/03 17:54:21;;;;;;;5.57;5.07;;;-0.30;99.90;;;;;;4990217;28;20170;-72
2021/12/03 17:56:48;;;;;;;6.77;5.63;;;-0.40;99.90;;;;;;4986486;28;20400;-72
2021/12/03 17:59:18;;;;;;;8.00;6.73;;;-0.50;99.90;;;;;;4987987;28;20182;-71
2021/12/03 18:07:03;;;;;;;8.00;6.97;;;-0.60;99.90;;;;;;4987079;28;20217;-73
2021/12/03 18:09:44;;;;;;;9.57;6.97;;;-0.60;99.90;;;;;;4987691;28;20190;-73
2021/12/03 18:47:24;;;;;;;9.40;8.03;;;-0.80;99.90;;;;;;4988828;28;20201;-73
2021/12/03 18:57:48;;;;;;;11.93;9.27;;;-0.90;99.90;;;;;;4987540;28;20205;-73
2021/12/03 19:00:18;;;;;;;9.67;8.57;;;-0.90;99.90;;;;;;4987731;28;20173;-75
2021/12/03 19:02:49;;;;;;;10.37;9.20;;;-0.90;99.90;;;;;;4978768;28;20181;-75
2021/12/03 19:05:49;;;;;;;11.00;8.23;;;-0.90;99.90;;;;;;4965213;28;20689;-76
2021/12/03 19:10:28;;;;;;;9.97;8.43;;;-0.90;99.90;;;;;;4982666;28;20208;-75
2021/12/03 19:13:01;;;;;;;10.80;8.83;;;-0.90;99.90;;;;;;4986346;28;20540;-76
2021/12/03 19:15:27;;;;;;;10.63;9.47;;;-1.00;99.90;;;;;;4969661;28;20208;-75
2021/12/03 19:17:53;;;;;;;11.13;9.03;;;-1.00;99.90;;;;;;4970386;28;20665;-75
2021/12/03 19:20:23;;;;;;;11.83;8.97;;;-1.00;99.90;;;;;;4988842;28;20274;-74
2021/12/03 19:22:49;;;;;;;12.77;8.40;;;-1.00;99.90;;;;;;4988882;28;20700;-75
2021/12/03 19:25:16;;;;;;;9.33;8.43;;;-1.00;99.90;;;;;;4988221;28;20251;-74
2021/12/03 19:27:42;;;;;;;13.20;10.63;;;-1.00;99.90;;;;;;4989753;28;20194;-74
2021/12/03 19:30:09;;;;;;;9.63;8.70;;;-1.10;99.90;;;;;;4964434;28;20174;-74
2021/12/03 19:32:35;;;;;;;9.63;8.63;;;-1.10;99.90;;;;;;4988003;28;20883;-74
2021/12/03 19:35:02;;;;;;;10.97;8.93;;;-1.10;99.90;;;;;;4985344;28;20189;-74
2021/12/03 19:37:29;;;;;;;9.57;8.57;;;-1.10;99.90;;;;;;4981172;28;20210;-74
2021/12/03 19:40:01;;;;;;;9.10;8.20;;;-1.20;99.90;;;;;;4987929;28;20188;-73
2021/12/03 19:42:33;;;;;;;12.53;8.40;;;-1.20;99.90;;;;;;4982114;28;20182;-73
2021/12/03 19:45:05;;;;;;;10.20;8.80;;;-1.20;99.90;;;;;;4978045;28;20194;-72
2021/12/03 19:50:23;;;;;;;9.87;8.07;;;-1.20;99.90;;;;;;4984689;28;20185;-73
2021/12/03 19:55:21;;;;;;;10.27;8.57;;;-1.20;99.90;;;;;;4982520;28;20594;-74
2021/12/03 19:57:47;;;;;;;10.73;8.30;;;-1.30;99.90;;;;;;4985137;28;20205;-74
2021/12/03 20:00:13;;;;;;;10.60;8.33;;;-1.30;99.90;;;;;;4984578;28;20229;-73
2021/12/03 20:02:38;;;;;;;9.17;8.10;;;-1.30;99.90;;;;;;4981569;28;20646;-74
2021/12/03 20:05:04;;;;;;;9.63;8.40;;;-1.30;99.90;;;;;;4989931;28;20213;-73
2021/12/03 20:07:30;;;;;;;11.47;8.13;;;-1.40;99.90;;;;;;4985837;28;20199;-73
2021/12/03 20:12:24;;;;;;;11.23;8.67;;;-1.40;99.90;;;;;;4982576;28;20178;-72
2021/12/03 20:14:51;;;;;;;8.93;8.03;;;-1.40;99.90;;;;;;4985001;28;20181;-73
2021/12/03 20:17:28;;;;;;;9.80;8.67;;;-1.40;99.90;;;;;;4977531;28;20261;-73
2021/12/03 20:19:57;;;;;;;9.70;8.70;;;-1.40;99.90;;;;;;4991281;28;20192;-74
2021/12/03 20:22:41;;;;;;;10.53;8.50;;;-1.50;99.90;;;;;;4988919;28;20181;-74
2021/12/03 20:27:41;;;;;;;9.37;7.70;;;-1.60;99.90;;;;;;4996796;28;20202;-75
2021/12/03 20:38:35;;;;;;;11.00;9.77;;;-1.40;99.90;;;;;;4989105;28;20240;-73
2021/12/03 20:41:02;;;;;;;14.23;9.90;;;-1.40;99.90;;;;;;4993697;28;20186;-73
2021/12/03 20:46:55;;;;;;;12.67;10.43;;;-1.50;99.90;;;;;;4968441;28;20207;-73
2021/12/03 20:49:39;;;;;;;12.93;10.47;;;-1.50;99.90;;;;;;4969790;28;20206;-73
2021/12/03 20:57:44;;;;;;;12.57;9.83;;;-1.50;99.90;;;;;;4987479;28;20237;-73
2021/12/03 21:10:26;;;;;;;10.70;9.60;;;-1.40;99.90;;;;;;4986282;28;20312;-74
2021/12/03 21:12:55;;;;;;;11.23;9.40;;;-1.30;99.90;;;;;;4990477;28;20540;-74
2021/12/03 21:20:37;;;;;;;9.90;8.83;;;-1.40;99.90;;;;;;4991272;28;20217;-80
2021/12/03 21:23:06;;;;;;;11.33;8.30;;;-1.40;99.90;;;;;;4983968;28;20186;-76
2021/12/03 21:25:34;;;;;;;9.83;8.80;;;-1.40;99.90;;;;;;4988163;28;20257;-76
2021/12/03 21:28:34;;;;;;;8.83;7.93;;;-1.40;99.90;;;;;;4976342;28;20206;-73
2021/12/03 21:30:55;;;;;;;9.37;7.77;;;-1.40;99.90;;;;;;4993397;28;20190;-72